createdAt,value
2023-03-26T00:02:46.013Z,99863.72
2023-03-26T00:07:48.655Z,99861.44
2023-03-26T00:12:50.162Z,99859.53
2023-03-26T00:17:54.180Z,99867.66
2023-03-26T00:22:56.342Z,99861.19
2023-03-26T00:27:58.880Z,99851.94
2023-03-26T00:33:00.687Z,99846.50
2023-03-26T00:38:02.668Z,99838.75
2023-03-26T00:43:18.446Z,99839.59
2023-03-26T00:48:34.340Z,99834.59
2023-03-26T00:53:45.708Z,99841.06
2023-03-26T00:58:50.023Z,99830.41
2023-03-26T01:04:08.304Z,99817.03
2023-03-26T01:09:19.003Z,99802.97
2023-03-26T01:14:25.000Z,99800.03
2023-03-26T01:19:45.525Z,99783.28
2023-03-26T01:24:53.036Z,99785.19
2023-03-26T01:30:03.728Z,99777.44
2023-03-26T01:35:18.984Z,99765.13
2023-03-26T01:40:42.478Z,99749.00
2023-03-26T01:45:47.754Z,99739.25
2023-03-26T01:50:53.504Z,99733.22
2023-03-26T01:56:24.111Z,99712.91
2023-03-26T02:01:59.895Z,99695.09
2023-03-26T02:07:20.932Z,99681.78
2023-03-26T02:12:23.721Z,99684.09
2023-03-26T02:17:25.399Z,99675.31
2023-03-26T02:22:30.009Z,99669.47
2023-03-26T02:27:33.982Z,99657.16
2023-03-26T02:32:35.846Z,99657.75
2023-03-26T02:37:38.280Z,99648.38
2023-03-26T02:42:48.873Z,99639.25
2023-03-26T02:47:51.081Z,99639.94
2023-03-26T02:53:16.919Z,99627.03
2023-03-26T02:58:25.202Z,99615.38
2023-03-26T03:03:27.662Z,99602.91
2023-03-26T03:08:35.140Z,99600.19
2023-03-26T03:13:51.991Z,99587.91
2023-03-26T03:18:58.407Z,99571.44
2023-03-26T03:24:13.785Z,99575.81
2023-03-26T03:29:18.731Z,99579.13
2023-03-26T03:34:21.680Z,99579.94
2023-03-26T03:39:25.678Z,99563.16
2023-03-26T03:44:27.465Z,99553.09
2023-03-26T03:49:29.600Z,99532.63
2023-03-26T03:54:32.367Z,99535.75
2023-03-26T03:59:49.214Z,99524.88
2023-03-26T04:04:53.144Z,99514.81
2023-03-26T04:09:57.186Z,99494.28
2023-03-26T04:15:00.582Z,99480.69
2023-03-26T04:20:06.882Z,99492.38
2023-03-26T04:25:10.052Z,99468.91
2023-03-26T04:30:20.682Z,99455.09
2023-03-26T04:35:30.417Z,99452.38
2023-03-26T04:40:34.614Z,99459.91
2023-03-26T04:46:03.339Z,99446.94
2023-03-26T04:51:10.319Z,99437.91
2023-03-26T04:56:32.509Z,99415.50
2023-03-26T05:01:53.640Z,99399.88
2023-03-26T05:06:58.408Z,99388.69
2023-03-26T05:12:08.660Z,99388.22
2023-03-26T05:17:24.554Z,99382.34
2023-03-26T05:22:26.313Z,99383.13
2023-03-26T05:27:44.564Z,99362.13
2023-03-26T05:32:48.836Z,99348.16
2023-03-26T05:37:53.334Z,99321.22
2023-03-26T05:42:58.236Z,99314.50
2023-03-26T05:48:11.657Z,99316.22
2023-03-26T05:53:13.224Z,99293.09
2023-03-26T05:58:47.569Z,99281.66
2023-03-26T06:04:18.335Z,99279.91
2023-03-26T06:09:45.832Z,99269.38
2023-03-26T06:14:47.650Z,99271.53
2023-03-26T06:20:09.573Z,99260.81
2023-03-26T06:25:17.451Z,99259.75
2023-03-26T06:30:30.351Z,99242.84
2023-03-26T06:35:40.878Z,99249.72
2023-03-26T06:40:42.513Z,99254.47
2023-03-26T06:46:09.281Z,99255.19
2023-03-26T06:51:13.415Z,99249.25
2023-03-26T06:56:33.269Z,99228.84
2023-03-26T07:01:54.876Z,99227.78
2023-03-26T07:07:15.032Z,99234.41
2023-03-26T07:12:53.402Z,99223.63
2023-03-26T07:18:13.584Z,99223.34
2023-03-26T07:23:20.483Z,99217.88
2023-03-26T07:29:03.766Z,99174.19
2023-03-26T07:34:46.282Z,99168.88
2023-03-26T07:40:17.662Z,99151.34
2023-03-26T07:45:45.063Z,99145.31
2023-03-26T07:51:25.398Z,99123.88
2023-03-26T07:56:38.909Z,99122.91
2023-03-26T08:02:31.538Z,99135.00
2023-03-26T08:08:00.834Z,99134.69
2023-03-26T08:13:35.801Z,99157.31
2023-03-26T08:18:54.582Z,99162.75
2023-03-26T08:24:12.558Z,99166.31
2023-03-26T08:29:29.304Z,99148.91
2023-03-26T08:34:30.990Z,99147.94
2023-03-26T08:39:32.515Z,99143.63
2023-03-26T08:44:47.738Z,99140.19
2023-03-26T08:50:29.945Z,99145.38
2023-03-26T08:55:48.768Z,99153.91
2023-03-26T09:01:09.124Z,99137.84
2023-03-26T09:06:40.888Z,99134.84
2023-03-26T09:12:01.919Z,99118.47
2023-03-26T09:17:36.856Z,99134.94
2023-03-26T09:22:56.298Z,99132.97
2023-03-26T09:28:35.280Z,99131.63
2023-03-26T09:34:01.515Z,99110.44
2023-03-26T09:39:10.112Z,99101.78
2023-03-26T09:44:14.302Z,99103.44
2023-03-26T09:49:38.991Z,99080.59
2023-03-26T09:54:58.626Z,99069.22
2023-03-26T10:00:15.884Z,99049.38
2023-03-26T10:05:26.784Z,99052.53
2023-03-26T10:10:55.677Z,99037.94
2023-03-26T10:16:15.484Z,99054.38
2023-03-26T10:21:28.509Z,99041.72
2023-03-26T10:27:08.649Z,99028.78
2023-03-26T10:32:25.748Z,99024.13
2023-03-26T10:37:41.435Z,99024.38
2023-03-26T10:43:19.706Z,99025.22
2023-03-26T10:48:41.969Z,99004.59
2023-03-26T10:53:49.301Z,98983.59
2023-03-26T10:58:51.349Z,99003.94
2023-03-26T11:03:55.650Z,99000.59
2023-03-26T11:09:13.655Z,98987.38
2023-03-26T11:14:33.772Z,98968.56
2023-03-26T11:19:48.301Z,98979.25
2023-03-26T11:25:00.994Z,98979.75
2023-03-26T11:30:22.513Z,98945.47
2023-03-26T11:35:40.969Z,98932.28
2023-03-26T11:40:50.549Z,98946.03
2023-03-26T11:46:04.218Z,98940.78
2023-03-26T11:51:10.300Z,98966.63
2023-03-26T11:56:24.567Z,98941.25
2023-03-26T12:01:30.999Z,98953.69
2023-03-26T12:06:33.055Z,98925.06
2023-03-26T12:11:35.822Z,98946.91
2023-03-26T12:16:37.450Z,98930.38
2023-03-26T12:21:50.559Z,98916.34
2023-03-26T12:26:58.396Z,98922.22
2023-03-26T12:32:14.972Z,98909.38
2023-03-26T12:37:36.169Z,98890.84
2023-03-26T12:44:47.212Z,98888.50
2023-03-26T12:48:04.083Z,98905.91
2023-03-26T12:53:21.112Z,98910.50
2023-03-26T12:58:43.424Z,98899.34
2023-03-26T13:04:22.386Z,98901.31
2023-03-26T13:09:37.704Z,98912.09
2023-03-26T13:15:18.120Z,98899.22
2023-03-26T13:20:48.782Z,98888.53
2023-03-26T13:26:11.361Z,98893.94
2023-03-26T13:31:31.661Z,98889.53
2023-03-26T13:36:42.613Z,98867.41
2023-03-26T13:42:07.156Z,98892.66
2023-03-26T13:47:18.572Z,98901.56
2023-03-26T13:52:27.582Z,98923.06
2023-03-26T13:57:41.595Z,98960.00
2023-03-26T14:02:47.743Z,99041.63
2023-03-26T14:07:55.147Z,99109.44
2023-03-26T14:13:17.746Z,99126.91
2023-03-26T14:18:33.878Z,99132.94
2023-03-26T14:23:57.315Z,99130.84
2023-03-26T14:29:04.801Z,99118.44
2023-03-26T14:34:26.631Z,99120.22
2023-03-26T14:39:54.073Z,99121.28
2023-03-26T14:45:07.767Z,99109.56
2023-03-26T14:50:48.081Z,99121.28
2023-03-26T14:56:10.252Z,99128.50
2023-03-26T15:01:25.352Z,99118.19
2023-03-26T15:06:45.457Z,99103.28
2023-03-26T15:12:24.380Z,99088.81
2023-03-26T15:17:45.035Z,99085.38
2023-03-26T15:23:23.996Z,99087.78
2023-03-26T15:29:11.791Z,99080.53
2023-03-26T15:34:45.056Z,99093.53
2023-03-26T15:40:36.268Z,99090.34
2023-03-26T15:45:45.265Z,99088.66
2023-03-26T15:51:08.330Z,99080.59
2023-03-26T15:56:49.251Z,99079.03
2023-03-26T16:02:16.098Z,99093.25
2023-03-26T16:07:41.372Z,99099.09
2023-03-26T16:13:20.661Z,99123.84
2023-03-26T16:18:45.005Z,99128.13
2023-03-26T16:23:49.718Z,99128.56
2023-03-26T16:28:52.878Z,99138.16
2023-03-26T16:34:17.761Z,99143.13
2023-03-26T16:39:23.048Z,99138.75
2023-03-26T16:44:49.602Z,99155.44
2023-03-26T16:50:07.382Z,99147.56
2023-03-26T16:55:28.607Z,99158.41
2023-03-26T17:01:02.071Z,99159.13
2023-03-26T17:06:30.031Z,99148.47
2023-03-26T17:11:46.275Z,99139.56
2023-03-26T17:17:17.048Z,99147.91
2023-03-26T17:22:34.901Z,99155.97
2023-03-26T17:27:43.931Z,99163.69
2023-03-26T17:33:06.250Z,99161.34
2023-03-26T17:38:16.888Z,99164.75
2023-03-26T17:43:56.687Z,99167.94
2023-03-26T17:49:18.423Z,99160.34
2023-03-26T17:54:27.156Z,99176.47
2023-03-26T17:59:29.391Z,99173.50
2023-03-26T18:04:36.437Z,99181.16
2023-03-26T18:10:04.954Z,99177.28
2023-03-26T18:15:27.871Z,99180.31
2023-03-26T18:20:29.677Z,99180.03
2023-03-26T18:25:34.072Z,99171.59
2023-03-26T18:30:46.944Z,99176.59
2023-03-26T18:35:55.595Z,99177.94
2023-03-26T18:40:57.576Z,99194.16
2023-03-26T18:45:59.368Z,99206.75
2023-03-26T18:51:05.750Z,99209.84
2023-03-26T18:56:20.761Z,99194.75
2023-03-26T19:01:25.950Z,99191.66
2023-03-26T19:06:28.841Z,99175.91
2023-03-26T19:11:30.544Z,99175.81
2023-03-26T19:16:35.518Z,99168.72
2023-03-26T19:21:37.186Z,99181.16
2023-03-26T19:26:38.786Z,99177.47
2023-03-26T19:31:40.591Z,99180.34
2023-03-26T19:37:22.085Z,99168.44
2023-03-26T19:42:44.078Z,99168.97
2023-03-26T19:47:50.110Z,99157.13
2023-03-26T19:53:37.308Z,99138.84
2023-03-26T19:58:42.784Z,99124.97
2023-03-26T20:03:48.024Z,99126.31
2023-03-26T20:08:51.282Z,99111.16
2023-03-26T20:13:52.909Z,99122.91
2023-03-26T20:18:58.402Z,99125.34
2023-03-26T20:24:00.756Z,99116.94
2023-03-26T20:29:03.464Z,99113.78
2023-03-26T20:34:07.345Z,99117.34
2023-03-26T20:39:09.600Z,99114.53
2023-03-26T20:44:15.121Z,99115.97
2023-03-26T20:49:17.863Z,99124.34
2023-03-26T20:54:23.329Z,99125.75
2023-03-26T20:59:27.497Z,99128.19
2023-03-26T21:04:29.230Z,99149.03
2023-03-26T21:09:34.951Z,99145.34
2023-03-26T21:14:41.063Z,99165.69
2023-03-26T21:19:43.702Z,99168.84
2023-03-26T21:24:54.744Z,99177.00
2023-03-26T21:29:58.102Z,99190.38
2023-03-26T21:35:00.019Z,99203.75
2023-03-26T21:40:12.471Z,99207.53
2023-03-26T21:45:15.160Z,99216.16
2023-03-26T21:50:20.549Z,99235.41
2023-03-26T21:55:23.729Z,99238.13
2023-03-26T22:00:43.180Z,99240.47
2023-03-26T22:05:54.273Z,99252.38
2023-03-26T22:10:56.391Z,99260.31
2023-03-26T22:15:58.087Z,99266.84
2023-03-26T22:21:00.061Z,99273.09
2023-03-26T22:26:02.869Z,99278.31
2023-03-26T22:31:08.846Z,99290.00
2023-03-26T22:36:23.286Z,99292.94
2023-03-26T22:41:25.776Z,99311.38
2023-03-26T22:46:27.713Z,99314.31
2023-03-26T22:51:30.046Z,99333.13
2023-03-26T22:56:31.782Z,99335.63
2023-03-26T23:01:34.646Z,99355.47
2023-03-26T23:06:36.165Z,99360.72
2023-03-26T23:11:37.676Z,99377.84
2023-03-26T23:16:39.239Z,99384.28
2023-03-26T23:21:40.745Z,99397.28
2023-03-26T23:26:50.474Z,99415.88
2023-03-26T23:31:54.023Z,99430.78
2023-03-26T23:36:55.619Z,99447.81
2023-03-26T23:41:57.143Z,99463.59
2023-03-26T23:47:00.502Z,99483.75
2023-03-26T23:52:02.045Z,99483.38
2023-03-26T23:57:04.114Z,99490.50
